sensor_id;sensor_type;location;lat;lon;timestamp;P1;durP1;ratioP1;P2;durP2;ratioP2
2542;SDS011;1116;51.502;7.414;2023-02-21T00:01:58;33.07;;;22.20;;
2542;SDS011;1116;51.502;7.414;2023-02-21T00:04:55;31.80;;;22.17;;
2542;SDS011;1116;51.502;7.414;2023-02-21T00:10:40;34.57;;;23.43;;
2542;SDS011;1116;51.502;7.414;2023-02-21T00:13:24;33.40;;;22.73;;
2542;SDS011;1116;51.502;7.414;2023-02-21T00:16:12;30.20;;;21.17;;
2542;SDS011;1116;51.502;7.414;2023-02-21T00:19:00;33.07;;;22.90;;
2542;SDS011;1116;51.502;7.414;2023-02-21T00:21:43;34.27;;;23.10;;
2542;SDS011;1116;51.502;7.414;2023-02-21T00:24:26;32.70;;;22.30;;
2542;SDS011;1116;51.502;7.414;2023-02-21T00:27:09;33.73;;;23.13;;
2542;SDS011;1116;51.502;7.414;2023-02-21T00:29:53;31.73;;;21.67;;
2542;SDS011;1116;51.502;7.414;2023-02-21T00:32:36;37.47;;;23.63;;
2542;SDS011;1116;51.502;7.414;2023-02-21T00:35:22;32.63;;;22.77;;
2542;SDS011;1116;51.502;7.414;2023-02-21T00:38:05;35.90;;;23.67;;
2542;SDS011;1116;51.502;7.414;2023-02-21T00:40:52;36.10;;;24.27;;
2542;SDS011;1116;51.502;7.414;2023-02-21T00:43:35;38.50;;;23.73;;
2542;SDS011;1116;51.502;7.414;2023-02-21T00:46:19;38.07;;;23.90;;
2542;SDS011;1116;51.502;7.414;2023-02-21T00:49:04;39.40;;;25.27;;
2542;SDS011;1116;51.502;7.414;2023-02-21T00:51:50;33.53;;;23.57;;
2542;SDS011;1116;51.502;7.414;2023-02-21T00:54:33;38.23;;;23.87;;
2542;SDS011;1116;51.502;7.414;2023-02-21T00:57:17;37.20;;;24.70;;
2542;SDS011;1116;51.502;7.414;2023-02-21T01:00:00;39.63;;;24.23;;
2542;SDS011;1116;51.502;7.414;2023-02-21T01:02:43;38.67;;;23.70;;
2542;SDS011;1116;51.502;7.414;2023-02-21T01:05:27;36.27;;;23.70;;
2542;SDS011;1116;51.502;7.414;2023-02-21T01:08:15;41.57;;;25.43;;
2542;SDS011;1116;51.502;7.414;2023-02-21T01:10:58;43.67;;;26.20;;
2542;SDS011;1116;51.502;7.414;2023-02-21T01:13:42;39.90;;;24.57;;
2542;SDS011;1116;51.502;7.414;2023-02-21T01:16:26;40.43;;;25.67;;
2542;SDS011;1116;51.502;7.414;2023-02-21T01:19:09;46.43;;;26.93;;
2542;SDS011;1116;51.502;7.414;2023-02-21T01:21:53;47.23;;;26.67;;
2542;SDS011;1116;51.502;7.414;2023-02-21T01:24:38;43.70;;;27.63;;
2542;SDS011;1116;51.502;7.414;2023-02-21T01:27:22;46.30;;;27.27;;
2542;SDS011;1116;51.502;7.414;2023-02-21T01:30:06;48.10;;;28.43;;
2542;SDS011;1116;51.502;7.414;2023-02-21T01:32:51;45.83;;;28.10;;
2542;SDS011;1116;51.502;7.414;2023-02-21T01:35:34;47.67;;;27.57;;
2542;SDS011;1116;51.502;7.414;2023-02-21T01:38:18;44.80;;;26.93;;
2542;SDS011;1116;51.502;7.414;2023-02-21T01:41:03;47.83;;;26.90;;
2542;SDS011;1116;51.502;7.414;2023-02-21T01:43:55;47.50;;;28.60;;
2542;SDS011;1116;51.502;7.414;2023-02-21T01:46:42;49.60;;;28.50;;
2542;SDS011;1116;51.502;7.414;2023-02-21T01:49:26;53.40;;;27.40;;
2542;SDS011;1116;51.502;7.414;2023-02-21T01:52:10;49.20;;;29.47;;
2542;SDS011;1116;51.502;7.414;2023-02-21T01:54:53;50.27;;;28.00;;
2542;SDS011;1116;51.502;7.414;2023-02-21T01:57:43;49.10;;;27.97;;
2542;SDS011;1116;51.502;7.414;2023-02-21T02:00:28;50.20;;;29.70;;
2542;SDS011;1116;51.502;7.414;2023-02-21T02:03:12;49.17;;;29.83;;
2542;SDS011;1116;51.502;7.414;2023-02-21T02:05:59;54.57;;;30.70;;
2542;SDS011;1116;51.502;7.414;2023-02-21T02:08:46;51.07;;;28.70;;
2542;SDS011;1116;51.502;7.414;2023-02-21T02:11:36;51.60;;;28.23;;
2542;SDS011;1116;51.502;7.414;2023-02-21T02:17:38;60.30;;;29.70;;
2542;SDS011;1116;51.502;7.414;2023-02-21T02:20:22;58.57;;;32.20;;
2542;SDS011;1116;51.502;7.414;2023-02-21T02:23:18;57.43;;;31.50;;
2542;SDS011;1116;51.502;7.414;2023-02-21T02:26:19;61.97;;;31.63;;
2542;SDS011;1116;51.502;7.414;2023-02-21T02:29:12;57.80;;;33.47;;
2542;SDS011;1116;51.502;7.414;2023-02-21T02:35:08;59.47;;;31.53;;
2542;SDS011;1116;51.502;7.414;2023-02-21T02:37:44;60.80;;;30.43;;
2542;SDS011;1116;51.502;7.414;2023-02-21T02:40:21;64.13;;;32.50;;
2542;SDS011;1116;51.502;7.414;2023-02-21T02:43:00;65.10;;;33.40;;
2542;SDS011;1116;51.502;7.414;2023-02-21T02:45:39;68.53;;;32.30;;
2542;SDS011;1116;51.502;7.414;2023-02-21T02:48:15;59.70;;;33.00;;
2542;SDS011;1116;51.502;7.414;2023-02-21T02:50:52;65.67;;;33.07;;
2542;SDS011;1116;51.502;7.414;2023-02-21T02:53:25;74.40;;;32.93;;
2542;SDS011;1116;51.502;7.414;2023-02-21T02:55:58;64.63;;;32.30;;
2542;SDS011;1116;51.502;7.414;2023-02-21T02:58:32;66.13;;;33.27;;
2542;SDS011;1116;51.502;7.414;2023-02-21T03:01:10;69.20;;;33.63;;
2542;SDS011;1116;51.502;7.414;2023-02-21T03:03:58;65.63;;;31.13;;
2542;SDS011;1116;51.502;7.414;2023-02-21T03:06:48;68.97;;;32.40;;
2542;SDS011;1116;51.502;7.414;2023-02-21T03:09:28;67.50;;;32.37;;
2542;SDS011;1116;51.502;7.414;2023-02-21T03:12:10;67.27;;;33.43;;
2542;SDS011;1116;51.502;7.414;2023-02-21T03:14:49;67.67;;;33.13;;
2542;SDS011;1116;51.502;7.414;2023-02-21T03:17:29;64.07;;;31.97;;
2542;SDS011;1116;51.502;7.414;2023-02-21T03:20:03;68.00;;;34.73;;
2542;SDS011;1116;51.502;7.414;2023-02-21T03:22:39;69.30;;;33.53;;
2542;SDS011;1116;51.502;7.414;2023-02-21T03:25:12;74.40;;;34.67;;
2542;SDS011;1116;51.502;7.414;2023-02-21T03:27:47;69.87;;;34.53;;
2542;SDS011;1116;51.502;7.414;2023-02-21T03:30:20;69.97;;;34.60;;
2542;SDS011;1116;51.502;7.414;2023-02-21T03:32:52;71.10;;;33.90;;
2542;SDS011;1116;51.502;7.414;2023-02-21T03:35:26;67.67;;;33.67;;
2542;SDS011;1116;51.502;7.414;2023-02-21T03:38:00;71.57;;;33.00;;
2542;SDS011;1116;51.502;7.414;2023-02-21T03:40:32;67.97;;;32.63;;
2542;SDS011;1116;51.502;7.414;2023-02-21T03:43:06;76.07;;;33.23;;
2542;SDS011;1116;51.502;7.414;2023-02-21T03:45:37;66.50;;;31.90;;
2542;SDS011;1116;51.502;7.414;2023-02-21T03:48:07;72.20;;;33.03;;
2542;SDS011;1116;51.502;7.414;2023-02-21T03:50:41;68.03;;;33.10;;
2542;SDS011;1116;51.502;7.414;2023-02-21T03:53:15;67.73;;;34.30;;
2542;SDS011;1116;51.502;7.414;2023-02-21T03:55:46;63.40;;;30.37;;
2542;SDS011;1116;51.502;7.414;2023-02-21T03:58:17;65.10;;;33.00;;
2542;SDS011;1116;51.502;7.414;2023-02-21T04:00:50;58.30;;;30.77;;
2542;SDS011;1116;51.502;7.414;2023-02-21T04:03:21;60.63;;;31.70;;
2542;SDS011;1116;51.502;7.414;2023-02-21T04:05:52;58.83;;;32.37;;
2542;SDS011;1116;51.502;7.414;2023-02-21T04:08:25;60.33;;;31.20;;
2542;SDS011;1116;51.502;7.414;2023-02-21T04:10:58;64.93;;;32.60;;
2542;SDS011;1116;51.502;7.414;2023-02-21T04:13:31;56.63;;;31.70;;
2542;SDS011;1116;51.502;7.414;2023-02-21T04:16:04;58.17;;;31.60;;
2542;SDS011;1116;51.502;7.414;2023-02-21T04:18:35;60.13;;;33.03;;
2542;SDS011;1116;51.502;7.414;2023-02-21T04:21:07;61.73;;;32.10;;
2542;SDS011;1116;51.502;7.414;2023-02-21T04:23:40;57.10;;;32.10;;
2542;SDS011;1116;51.502;7.414;2023-02-21T04:26:11;58.37;;;31.27;;
2542;SDS011;1116;51.502;7.414;2023-02-21T04:28:42;59.23;;;31.97;;
2542;SDS011;1116;51.502;7.414;2023-02-21T04:31:13;54.73;;;29.73;;
2542;SDS011;1116;51.502;7.414;2023-02-21T04:33:44;62.10;;;32.57;;
2542;SDS011;1116;51.502;7.414;2023-02-21T04:36:21;55.90;;;30.50;;
2542;SDS011;1116;51.502;7.414;2023-02-21T04:38:54;57.60;;;30.67;;
2542;SDS011;1116;51.502;7.414;2023-02-21T04:41:25;57.50;;;30.33;;
2542;SDS011;1116;51.502;7.414;2023-02-21T04:43:56;58.17;;;31.90;;
2542;SDS011;1116;51.502;7.414;2023-02-21T04:46:27;60.73;;;31.23;;
2542;SDS011;1116;51.502;7.414;2023-02-21T04:48:57;62.40;;;32.63;;
2542;SDS011;1116;51.502;7.414;2023-02-21T04:51:29;61.30;;;33.57;;
2542;SDS011;1116;51.502;7.414;2023-02-21T04:54:04;62.17;;;33.00;;
2542;SDS011;1116;51.502;7.414;2023-02-21T04:56:35;55.57;;;30.93;;
2542;SDS011;1116;51.502;7.414;2023-02-21T04:59:08;57.13;;;31.57;;
2542;SDS011;1116;51.502;7.414;2023-02-21T05:01:39;59.73;;;32.50;;
2542;SDS011;1116;51.502;7.414;2023-02-21T05:04:10;59.37;;;32.63;;
2542;SDS011;1116;51.502;7.414;2023-02-21T05:06:43;62.63;;;32.37;;
2542;SDS011;1116;51.502;7.414;2023-02-21T05:09:16;57.30;;;30.77;;
2542;SDS011;1116;51.502;7.414;2023-02-21T05:11:47;61.03;;;32.50;;
2542;SDS011;1116;51.502;7.414;2023-02-21T05:14:18;63.00;;;31.40;;
2542;SDS011;1116;51.502;7.414;2023-02-21T05:16:52;57.37;;;30.50;;
2542;SDS011;1116;51.502;7.414;2023-02-21T05:19:24;64.60;;;31.70;;
2542;SDS011;1116;51.502;7.414;2023-02-21T05:21:57;68.63;;;32.73;;
2542;SDS011;1116;51.502;7.414;2023-02-21T05:24:32;64.93;;;33.17;;
2542;SDS011;1116;51.502;7.414;2023-02-21T05:27:04;62.77;;;32.40;;
2542;SDS011;1116;51.502;7.414;2023-02-21T05:29:37;65.73;;;32.50;;
2542;SDS011;1116;51.502;7.414;2023-02-21T05:32:08;65.93;;;33.37;;
2542;SDS011;1116;51.502;7.414;2023-02-21T05:34:39;67.43;;;32.03;;
2542;SDS011;1116;51.502;7.414;2023-02-21T05:37:11;67.40;;;34.50;;
2542;SDS011;1116;51.502;7.414;2023-02-21T05:39:44;65.17;;;33.57;;
2542;SDS011;1116;51.502;7.414;2023-02-21T05:42:15;67.13;;;33.80;;
2542;SDS011;1116;51.502;7.414;2023-02-21T05:44:46;62.80;;;34.13;;
2542;SDS011;1116;51.502;7.414;2023-02-21T05:47:17;65.80;;;33.60;;
2542;SDS011;1116;51.502;7.414;2023-02-21T05:49:48;70.50;;;33.27;;
2542;SDS011;1116;51.502;7.414;2023-02-21T05:52:19;62.53;;;32.67;;
2542;SDS011;1116;51.502;7.414;2023-02-21T05:54:52;72.70;;;36.47;;
2542;SDS011;1116;51.502;7.414;2023-02-21T05:57:23;71.67;;;34.60;;
2542;SDS011;1116;51.502;7.414;2023-02-21T05:59:54;76.63;;;36.10;;
2542;SDS011;1116;51.502;7.414;2023-02-21T06:02:25;63.47;;;32.43;;
2542;SDS011;1116;51.502;7.414;2023-02-21T06:04:55;68.33;;;34.43;;
2542;SDS011;1116;51.502;7.414;2023-02-21T06:07:26;71.20;;;32.93;;
2542;SDS011;1116;51.502;7.414;2023-02-21T06:09:59;64.07;;;34.50;;
2542;SDS011;1116;51.502;7.414;2023-02-21T06:12:30;74.73;;;34.57;;
2542;SDS011;1116;51.502;7.414;2023-02-21T06:15:01;74.00;;;35.70;;
2542;SDS011;1116;51.502;7.414;2023-02-21T06:17:36;72.07;;;35.00;;
2542;SDS011;1116;51.502;7.414;2023-02-21T06:20:09;76.13;;;37.23;;
2542;SDS011;1116;51.502;7.414;2023-02-21T06:22:43;80.97;;;36.07;;
2542;SDS011;1116;51.502;7.414;2023-02-21T06:25:20;80.63;;;36.00;;
2542;SDS011;1116;51.502;7.414;2023-02-21T06:27:53;80.07;;;38.13;;
2542;SDS011;1116;51.502;7.414;2023-02-21T06:30:24;81.13;;;35.50;;
2542;SDS011;1116;51.502;7.414;2023-02-21T06:32:55;83.23;;;37.70;;
2542;SDS011;1116;51.502;7.414;2023-02-21T06:35:26;83.37;;;38.23;;
2542;SDS011;1116;51.502;7.414;2023-02-21T06:37:57;103.10;;;41.20;;
2542;SDS011;1116;51.502;7.414;2023-02-21T06:40:31;86.73;;;39.07;;
2542;SDS011;1116;51.502;7.414;2023-02-21T06:43:01;90.23;;;38.60;;
2542;SDS011;1116;51.502;7.414;2023-02-21T06:45:32;80.33;;;38.57;;
2542;SDS011;1116;51.502;7.414;2023-02-21T06:48:05;75.97;;;37.47;;
2542;SDS011;1116;51.502;7.414;2023-02-21T06:50:36;80.20;;;37.10;;
2542;SDS011;1116;51.502;7.414;2023-02-21T06:53:07;84.83;;;38.00;;
2542;SDS011;1116;51.502;7.414;2023-02-21T06:55:43;91.27;;;38.13;;
2542;SDS011;1116;51.502;7.414;2023-02-21T06:58:14;75.00;;;37.20;;
2542;SDS011;1116;51.502;7.414;2023-02-21T07:00:45;79.60;;;37.57;;
2542;SDS011;1116;51.502;7.414;2023-02-21T07:03:16;89.17;;;39.43;;
2542;SDS011;1116;51.502;7.414;2023-02-21T07:05:50;79.57;;;38.17;;
2542;SDS011;1116;51.502;7.414;2023-02-21T07:08:21;78.37;;;37.20;;
2542;SDS011;1116;51.502;7.414;2023-02-21T07:10:55;86.80;;;39.23;;
2542;SDS011;1116;51.502;7.414;2023-02-21T07:13:26;73.47;;;36.87;;
2542;SDS011;1116;51.502;7.414;2023-02-21T07:15:56;74.07;;;36.33;;
2542;SDS011;1116;51.502;7.414;2023-02-21T07:18:28;77.87;;;35.40;;
2542;SDS011;1116;51.502;7.414;2023-02-21T07:20:59;79.43;;;36.93;;
2542;SDS011;1116;51.502;7.414;2023-02-21T07:23:30;77.57;;;37.43;;
2542;SDS011;1116;51.502;7.414;2023-02-21T07:26:04;80.10;;;37.30;;
2542;SDS011;1116;51.502;7.414;2023-02-21T07:28:37;73.97;;;37.23;;
2542;SDS011;1116;51.502;7.414;2023-02-21T07:31:08;85.20;;;36.40;;
2542;SDS011;1116;51.502;7.414;2023-02-21T07:33:45;72.37;;;34.70;;
2542;SDS011;1116;51.502;7.414;2023-02-21T07:36:16;79.80;;;36.50;;
2542;SDS011;1116;51.502;7.414;2023-02-21T07:38:49;70.60;;;35.10;;
2542;SDS011;1116;51.502;7.414;2023-02-21T07:41:23;77.20;;;34.63;;
2542;SDS011;1116;51.502;7.414;2023-02-21T07:43:56;72.93;;;34.03;;
2542;SDS011;1116;51.502;7.414;2023-02-21T07:46:27;78.37;;;36.30;;
2542;SDS011;1116;51.502;7.414;2023-02-21T07:48:59;70.03;;;35.30;;
2542;SDS011;1116;51.502;7.414;2023-02-21T07:51:30;72.10;;;34.90;;
2542;SDS011;1116;51.502;7.414;2023-02-21T07:54:02;74.57;;;37.97;;
2542;SDS011;1116;51.502;7.414;2023-02-21T07:56:36;72.37;;;35.17;;
2542;SDS011;1116;51.502;7.414;2023-02-21T07:59:12;70.73;;;35.40;;
2542;SDS011;1116;51.502;7.414;2023-02-21T08:01:44;77.03;;;36.63;;
2542;SDS011;1116;51.502;7.414;2023-02-21T08:04:17;73.90;;;35.53;;
2542;SDS011;1116;51.502;7.414;2023-02-21T08:06:50;70.90;;;35.10;;
2542;SDS011;1116;51.502;7.414;2023-02-21T08:09:21;69.03;;;34.87;;
2542;SDS011;1116;51.502;7.414;2023-02-21T08:11:54;71.93;;;36.43;;
2542;SDS011;1116;51.502;7.414;2023-02-21T08:14:25;72.70;;;35.40;;
2542;SDS011;1116;51.502;7.414;2023-02-21T08:16:56;74.50;;;34.73;;
2542;SDS011;1116;51.502;7.414;2023-02-21T08:19:27;77.37;;;37.53;;
2542;SDS011;1116;51.502;7.414;2023-02-21T08:21:57;72.13;;;35.40;;
2542;SDS011;1116;51.502;7.414;2023-02-21T08:24:28;74.63;;;36.67;;
2542;SDS011;1116;51.502;7.414;2023-02-21T08:27:02;71.27;;;34.50;;
2542;SDS011;1116;51.502;7.414;2023-02-21T08:29:33;74.33;;;34.33;;
2542;SDS011;1116;51.502;7.414;2023-02-21T08:32:04;80.50;;;36.03;;
2542;SDS011;1116;51.502;7.414;2023-02-21T08:34:35;77.20;;;36.50;;
2542;SDS011;1116;51.502;7.414;2023-02-21T08:37:06;79.73;;;35.93;;
2542;SDS011;1116;51.502;7.414;2023-02-21T08:39:43;77.47;;;35.13;;
2542;SDS011;1116;51.502;7.414;2023-02-21T08:42:18;80.73;;;37.53;;
2542;SDS011;1116;51.502;7.414;2023-02-21T08:44:49;73.57;;;34.00;;
2542;SDS011;1116;51.502;7.414;2023-02-21T08:47:19;78.37;;;35.50;;
2542;SDS011;1116;51.502;7.414;2023-02-21T08:49:50;79.63;;;36.10;;
2542;SDS011;1116;51.502;7.414;2023-02-21T08:52:21;75.30;;;37.23;;
2542;SDS011;1116;51.502;7.414;2023-02-21T08:54:52;79.50;;;38.03;;
2542;SDS011;1116;51.502;7.414;2023-02-21T08:57:25;83.77;;;35.27;;
2542;SDS011;1116;51.502;7.414;2023-02-21T08:59:56;72.50;;;35.33;;
2542;SDS011;1116;51.502;7.414;2023-02-21T09:02:27;74.07;;;34.37;;
2542;SDS011;1116;51.502;7.414;2023-02-21T09:04:59;78.10;;;36.30;;
2542;SDS011;1116;51.502;7.414;2023-02-21T09:07:30;83.00;;;34.60;;
2542;SDS011;1116;51.502;7.414;2023-02-21T09:10:04;71.23;;;35.80;;
2542;SDS011;1116;51.502;7.414;2023-02-21T09:12:42;67.43;;;34.30;;
2542;SDS011;1116;51.502;7.414;2023-02-21T09:15:14;75.83;;;33.10;;
2542;SDS011;1116;51.502;7.414;2023-02-21T09:17:45;82.30;;;33.80;;
2542;SDS011;1116;51.502;7.414;2023-02-21T09:20:18;84.33;;;33.80;;
2542;SDS011;1116;51.502;7.414;2023-02-21T09:22:51;75.90;;;34.13;;
2542;SDS011;1116;51.502;7.414;2023-02-21T09:25:23;74.47;;;31.50;;
2542;SDS011;1116;51.502;7.414;2023-02-21T09:27:57;80.87;;;33.40;;
2542;SDS011;1116;51.502;7.414;2023-02-21T09:30:28;73.33;;;30.30;;
2542;SDS011;1116;51.502;7.414;2023-02-21T09:33:02;73.93;;;32.47;;
2542;SDS011;1116;51.502;7.414;2023-02-21T09:35:33;70.37;;;31.30;;
2542;SDS011;1116;51.502;7.414;2023-02-21T09:38:04;72.20;;;31.47;;
2542;SDS011;1116;51.502;7.414;2023-02-21T09:40:39;74.53;;;32.17;;
2542;SDS011;1116;51.502;7.414;2023-02-21T09:43:16;66.70;;;29.10;;
2542;SDS011;1116;51.502;7.414;2023-02-21T09:45:50;72.93;;;30.80;;
2542;SDS011;1116;51.502;7.414;2023-02-21T09:48:25;67.67;;;29.40;;
2542;SDS011;1116;51.502;7.414;2023-02-21T09:50:58;71.67;;;30.93;;
2542;SDS011;1116;51.502;7.414;2023-02-21T09:53:33;66.03;;;28.10;;
2542;SDS011;1116;51.502;7.414;2023-02-21T09:56:09;67.47;;;30.90;;
2542;SDS011;1116;51.502;7.414;2023-02-21T09:58:45;66.13;;;28.13;;
2542;SDS011;1116;51.502;7.414;2023-02-21T10:01:19;61.93;;;27.20;;
2542;SDS011;1116;51.502;7.414;2023-02-21T10:03:57;73.07;;;27.90;;
2542;SDS011;1116;51.502;7.414;2023-02-21T10:06:46;56.33;;;27.00;;
2542;SDS011;1116;51.502;7.414;2023-02-21T10:09:37;58.47;;;25.17;;
2542;SDS011;1116;51.502;7.414;2023-02-21T10:12:18;54.80;;;25.47;;
2542;SDS011;1116;51.502;7.414;2023-02-21T10:17:52;55.60;;;25.40;;
2542;SDS011;1116;51.502;7.414;2023-02-21T10:20:31;53.43;;;26.40;;
2542;SDS011;1116;51.502;7.414;2023-02-21T10:23:11;60.03;;;24.77;;
2542;SDS011;1116;51.502;7.414;2023-02-21T10:25:52;51.90;;;25.27;;
2542;SDS011;1116;51.502;7.414;2023-02-21T10:28:29;55.23;;;26.30;;
2542;SDS011;1116;51.502;7.414;2023-02-21T10:31:04;52.30;;;23.50;;
2542;SDS011;1116;51.502;7.414;2023-02-21T10:33:38;53.33;;;24.30;;
2542;SDS011;1116;51.502;7.414;2023-02-21T10:36:13;58.17;;;25.60;;
2542;SDS011;1116;51.502;7.414;2023-02-21T10:38:48;51.17;;;25.70;;
2542;SDS011;1116;51.502;7.414;2023-02-21T10:41:26;54.90;;;25.47;;
2542;SDS011;1116;51.502;7.414;2023-02-21T10:44:00;46.37;;;23.47;;
2542;SDS011;1116;51.502;7.414;2023-02-21T10:46:41;48.47;;;23.43;;
2542;SDS011;1116;51.502;7.414;2023-02-21T10:49:23;48.73;;;23.33;;
2542;SDS011;1116;51.502;7.414;2023-02-21T10:52:04;48.77;;;22.27;;
2542;SDS011;1116;51.502;7.414;2023-02-21T10:54:39;49.30;;;24.50;;
2542;SDS011;1116;51.502;7.414;2023-02-21T10:57:12;53.20;;;24.70;;
2542;SDS011;1116;51.502;7.414;2023-02-21T10:59:46;50.00;;;24.03;;
2542;SDS011;1116;51.502;7.414;2023-02-21T11:02:27;47.80;;;24.00;;
2542;SDS011;1116;51.502;7.414;2023-02-21T11:05:08;44.37;;;23.70;;
2542;SDS011;1116;51.502;7.414;2023-02-21T11:07:53;48.67;;;23.73;;
2542;SDS011;1116;51.502;7.414;2023-02-21T11:10:28;40.10;;;21.90;;
2542;SDS011;1116;51.502;7.414;2023-02-21T11:13:02;34.73;;;19.03;;
2542;SDS011;1116;51.502;7.414;2023-02-21T11:15:36;31.33;;;19.13;;
2542;SDS011;1116;51.502;7.414;2023-02-21T11:18:17;29.83;;;16.17;;
2542;SDS011;1116;51.502;7.414;2023-02-21T11:20:52;26.53;;;15.93;;
2542;SDS011;1116;51.502;7.414;2023-02-21T11:23:23;25.33;;;15.90;;
2542;SDS011;1116;51.502;7.414;2023-02-21T11:45:05;23.33;;;13.77;;
2542;SDS011;1116;51.502;7.414;2023-02-21T11:54:28;20.23;;;12.90;;
2542;SDS011;1116;51.502;7.414;2023-02-21T11:57:00;21.80;;;13.83;;
2542;SDS011;1116;51.502;7.414;2023-02-21T11:59:39;19.90;;;12.80;;
2542;SDS011;1116;51.502;7.414;2023-02-21T12:02:22;24.87;;;14.23;;
2542;SDS011;1116;51.502;7.414;2023-02-21T12:05:09;23.27;;;13.67;;
2542;SDS011;1116;51.502;7.414;2023-02-21T12:07:57;24.90;;;15.90;;
2542;SDS011;1116;51.502;7.414;2023-02-21T12:10:47;23.20;;;14.73;;
2542;SDS011;1116;51.502;7.414;2023-02-21T12:13:28;24.40;;;15.20;;
2542;SDS011;1116;51.502;7.414;2023-02-21T12:16:08;24.90;;;16.30;;
2542;SDS011;1116;51.502;7.414;2023-02-21T12:18:58;21.47;;;14.00;;
2542;SDS011;1116;51.502;7.414;2023-02-21T12:21:54;24.20;;;15.03;;
2542;SDS011;1116;51.502;7.414;2023-02-21T12:24:49;22.90;;;15.23;;
2542;SDS011;1116;51.502;7.414;2023-02-21T12:27:32;22.70;;;15.53;;
2542;SDS011;1116;51.502;7.414;2023-02-21T12:30:21;27.33;;;20.07;;
2542;SDS011;1116;51.502;7.414;2023-02-21T12:33:06;22.67;;;14.83;;
2542;SDS011;1116;51.502;7.414;2023-02-21T12:35:53;23.20;;;15.43;;
2542;SDS011;1116;51.502;7.414;2023-02-21T12:38:53;23.00;;;15.53;;
2542;SDS011;1116;51.502;7.414;2023-02-21T12:41:35;22.77;;;15.50;;
2542;SDS011;1116;51.502;7.414;2023-02-21T12:44:16;26.10;;;16.37;;
2542;SDS011;1116;51.502;7.414;2023-02-21T12:46:51;28.80;;;18.00;;
2542;SDS011;1116;51.502;7.414;2023-02-21T12:49:28;28.80;;;17.10;;
2542;SDS011;1116;51.502;7.414;2023-02-21T12:52:18;26.27;;;17.13;;
2542;SDS011;1116;51.502;7.414;2023-02-21T12:54:57;25.10;;;17.40;;
2542;SDS011;1116;51.502;7.414;2023-02-21T12:57:31;22.47;;;16.90;;
2542;SDS011;1116;51.502;7.414;2023-02-21T13:00:12;24.70;;;16.97;;
2542;SDS011;1116;51.502;7.414;2023-02-21T13:02:51;26.60;;;15.80;;
2542;SDS011;1116;51.502;7.414;2023-02-21T13:05:32;25.30;;;16.43;;
2542;SDS011;1116;51.502;7.414;2023-02-21T13:08:13;24.80;;;16.93;;
2542;SDS011;1116;51.502;7.414;2023-02-21T13:10:50;23.20;;;16.23;;
2542;SDS011;1116;51.502;7.414;2023-02-21T13:13:26;27.97;;;16.83;;
2542;SDS011;1116;51.502;7.414;2023-02-21T13:15:59;25.30;;;17.30;;
2542;SDS011;1116;51.502;7.414;2023-02-21T13:18:39;25.10;;;17.33;;
2542;SDS011;1116;51.502;7.414;2023-02-21T13:21:22;27.73;;;19.67;;
2542;SDS011;1116;51.502;7.414;2023-02-21T13:24:33;26.73;;;17.10;;
2542;SDS011;1116;51.502;7.414;2023-02-21T13:30:39;22.17;;;16.10;;
2542;SDS011;1116;51.502;7.414;2023-02-21T13:33:24;21.27;;;16.03;;
2542;SDS011;1116;51.502;7.414;2023-02-21T13:36:14;22.80;;;17.33;;
2542;SDS011;1116;51.502;7.414;2023-02-21T13:38:56;24.33;;;16.90;;
2542;SDS011;1116;51.502;7.414;2023-02-21T13:41:45;24.27;;;17.10;;
2542;SDS011;1116;51.502;7.414;2023-02-21T13:44:47;28.40;;;18.07;;
2542;SDS011;1116;51.502;7.414;2023-02-21T13:47:20;30.70;;;19.17;;
2542;SDS011;1116;51.502;7.414;2023-02-21T13:50:39;25.27;;;17.23;;
2542;SDS011;1116;51.502;7.414;2023-02-21T13:53:10;25.03;;;17.53;;
2542;SDS011;1116;51.502;7.414;2023-02-21T13:58:50;26.53;;;16.67;;
2542;SDS011;1116;51.502;7.414;2023-02-21T14:07:40;27.93;;;18.40;;
2542;SDS011;1116;51.502;7.414;2023-02-21T14:10:23;29.03;;;20.67;;
2542;SDS011;1116;51.502;7.414;2023-02-21T14:13:00;28.97;;;19.70;;
2542;SDS011;1116;51.502;7.414;2023-02-21T14:15:42;29.30;;;20.23;;
2542;SDS011;1116;51.502;7.414;2023-02-21T14:18:20;33.23;;;21.70;;
2542;SDS011;1116;51.502;7.414;2023-02-21T14:20:58;36.17;;;22.83;;
2542;SDS011;1116;51.502;7.414;2023-02-21T14:23:39;33.30;;;21.73;;
2542;SDS011;1116;51.502;7.414;2023-02-21T14:29:12;33.67;;;22.33;;
2542;SDS011;1116;51.502;7.414;2023-02-21T14:31:49;31.23;;;20.30;;
2542;SDS011;1116;51.502;7.414;2023-02-21T14:34:32;32.97;;;20.70;;
2542;SDS011;1116;51.502;7.414;2023-02-21T14:37:15;35.37;;;22.03;;
2542;SDS011;1116;51.502;7.414;2023-02-21T14:39:52;34.00;;;22.10;;
2542;SDS011;1116;51.502;7.414;2023-02-21T14:42:33;34.23;;;22.20;;
2542;SDS011;1116;51.502;7.414;2023-02-21T14:45:19;34.70;;;21.40;;
2542;SDS011;1116;51.502;7.414;2023-02-21T14:48:25;36.57;;;22.90;;
2542;SDS011;1116;51.502;7.414;2023-02-21T15:00:37;36.20;;;23.00;;
2542;SDS011;1116;51.502;7.414;2023-02-21T15:03:28;39.70;;;23.40;;
2542;SDS011;1116;51.502;7.414;2023-02-21T15:06:05;38.63;;;22.77;;
2542;SDS011;1116;51.502;7.414;2023-02-21T15:08:45;35.60;;;23.03;;
2542;SDS011;1116;51.502;7.414;2023-02-21T15:11:22;39.50;;;22.50;;
2542;SDS011;1116;51.502;7.414;2023-02-21T15:14:11;40.43;;;23.57;;
2542;SDS011;1116;51.502;7.414;2023-02-21T15:16:51;38.10;;;22.80;;
2542;SDS011;1116;51.502;7.414;2023-02-21T15:19:28;44.80;;;24.50;;
2542;SDS011;1116;51.502;7.414;2023-02-21T15:22:15;36.90;;;23.67;;
2542;SDS011;1116;51.502;7.414;2023-02-21T15:24:58;36.53;;;23.30;;
2542;SDS011;1116;51.502;7.414;2023-02-21T15:27:56;38.47;;;25.53;;
2542;SDS011;1116;51.502;7.414;2023-02-21T15:30:33;41.40;;;22.80;;
2542;SDS011;1116;51.502;7.414;2023-02-21T15:33:16;38.00;;;24.20;;
2542;SDS011;1116;51.502;7.414;2023-02-21T15:35:54;40.50;;;23.13;;
2542;SDS011;1116;51.502;7.414;2023-02-21T15:38:30;39.80;;;24.27;;
2542;SDS011;1116;51.502;7.414;2023-02-21T15:41:08;39.00;;;25.20;;
2542;SDS011;1116;51.502;7.414;2023-02-21T15:43:51;39.83;;;23.90;;
2542;SDS011;1116;51.502;7.414;2023-02-21T15:46:33;40.90;;;23.70;;
2542;SDS011;1116;51.502;7.414;2023-02-21T15:49:13;38.43;;;24.10;;
2542;SDS011;1116;51.502;7.414;2023-02-21T15:51:52;39.03;;;24.40;;
2542;SDS011;1116;51.502;7.414;2023-02-21T15:54:27;41.73;;;24.87;;
2542;SDS011;1116;51.502;7.414;2023-02-21T15:57:02;44.80;;;26.50;;
2542;SDS011;1116;51.502;7.414;2023-02-21T15:59:46;45.23;;;26.20;;
2542;SDS011;1116;51.502;7.414;2023-02-21T16:02:19;45.50;;;27.17;;
2542;SDS011;1116;51.502;7.414;2023-02-21T16:04:57;45.73;;;28.37;;
2542;SDS011;1116;51.502;7.414;2023-02-21T16:07:37;46.23;;;26.63;;
2542;SDS011;1116;51.502;7.414;2023-02-21T16:10:11;37.07;;;23.77;;
2542;SDS011;1116;51.502;7.414;2023-02-21T16:12:46;43.77;;;25.80;;
2542;SDS011;1116;51.502;7.414;2023-02-21T16:15:48;43.77;;;26.40;;
2542;SDS011;1116;51.502;7.414;2023-02-21T16:18:19;45.40;;;26.10;;
2542;SDS011;1116;51.502;7.414;2023-02-21T16:20:57;46.93;;;27.50;;
2542;SDS011;1116;51.502;7.414;2023-02-21T16:23:39;43.40;;;25.17;;
2542;SDS011;1116;51.502;7.414;2023-02-21T16:26:30;45.07;;;25.53;;
2542;SDS011;1116;51.502;7.414;2023-02-21T16:29:52;46.00;;;26.43;;
2542;SDS011;1116;51.502;7.414;2023-02-21T16:32:29;49.67;;;28.80;;
2542;SDS011;1116;51.502;7.414;2023-02-21T16:35:18;50.50;;;27.93;;
2542;SDS011;1116;51.502;7.414;2023-02-21T16:37:54;46.30;;;26.30;;
2542;SDS011;1116;51.502;7.414;2023-02-21T16:40:30;51.10;;;26.60;;
2542;SDS011;1116;51.502;7.414;2023-02-21T16:43:02;43.10;;;25.07;;
2542;SDS011;1116;51.502;7.414;2023-02-21T16:45:53;48.13;;;25.97;;
2542;SDS011;1116;51.502;7.414;2023-02-21T16:48:27;48.03;;;25.70;;
2542;SDS011;1116;51.502;7.414;2023-02-21T16:51:06;45.20;;;25.50;;
2542;SDS011;1116;51.502;7.414;2023-02-21T16:53:45;44.83;;;24.83;;
2542;SDS011;1116;51.502;7.414;2023-02-21T16:56:18;44.30;;;25.03;;